createdAt,value
2022-11-23T00:02:21.271Z,3.90
2022-11-23T00:06:25.836Z,3.90
2022-11-23T00:10:30.557Z,3.90
2022-11-23T00:14:34.382Z,3.90
2022-11-23T00:18:37.732Z,3.90
2022-11-23T00:22:40.980Z,4.00
2022-11-23T00:26:45.724Z,3.90
2022-11-23T00:30:52.560Z,3.90
2022-11-23T00:34:55.845Z,4.00
2022-11-23T00:38:59.090Z,4.00
2022-11-23T00:43:03.819Z,3.90
2022-11-23T00:47:07.162Z,3.90
2022-11-23T00:51:13.000Z,3.90
2022-11-23T00:55:16.468Z,3.90
2022-11-23T00:59:21.188Z,3.80
2022-11-23T01:03:24.460Z,3.90
2022-11-23T01:07:30.638Z,3.80
2022-11-23T01:11:34.552Z,3.90
2022-11-23T01:15:39.310Z,3.90
2022-11-23T01:19:42.741Z,3.90
2022-11-23T01:23:46.026Z,3.80
2022-11-23T01:27:49.366Z,3.90
2022-11-23T01:31:54.072Z,3.90
2022-11-23T01:35:57.366Z,3.80
2022-11-23T01:40:00.670Z,3.80
2022-11-23T01:44:27.270Z,3.70
2022-11-23T01:48:37.951Z,3.80
2022-11-23T01:52:41.247Z,3.80
2022-11-23T01:56:50.242Z,3.90
2022-11-23T02:00:53.578Z,3.80
2022-11-23T02:05:01.874Z,3.90
2022-11-23T02:09:05.269Z,3.80
2022-11-23T02:13:12.031Z,3.70
2022-11-23T02:17:15.483Z,3.80
2022-11-23T02:21:20.457Z,3.90
2022-11-23T02:25:35.657Z,3.80
2022-11-23T02:29:41.719Z,3.80
2022-11-23T02:33:45.020Z,3.80
2022-11-23T02:37:48.691Z,3.80
2022-11-23T02:41:55.005Z,3.80
2022-11-23T02:46:03.054Z,3.70
2022-11-23T02:50:06.919Z,3.80
2022-11-23T02:54:10.214Z,3.70
2022-11-23T02:58:13.540Z,3.80
2022-11-23T03:02:18.293Z,3.90
2022-11-23T03:06:21.648Z,3.80
2022-11-23T03:10:24.930Z,3.80
2022-11-23T03:14:28.826Z,3.80
2022-11-23T03:18:37.468Z,3.80
2022-11-23T03:23:04.317Z,3.70
2022-11-23T03:27:11.653Z,3.70
2022-11-23T03:31:20.584Z,3.70
2022-11-23T03:35:39.738Z,3.70
2022-11-23T03:39:47.352Z,3.70
2022-11-23T03:43:56.922Z,3.80
2022-11-23T03:48:01.066Z,3.70
2022-11-23T03:52:06.374Z,3.70
2022-11-23T03:56:10.188Z,3.60
2022-11-23T04:00:15.232Z,3.70
2022-11-23T04:04:19.092Z,3.80
2022-11-23T04:08:23.786Z,3.80
2022-11-23T04:12:27.120Z,3.70
2022-11-23T04:16:30.426Z,3.70
2022-11-23T04:20:33.713Z,3.70
2022-11-23T04:24:38.348Z,3.80
2022-11-23T04:28:41.652Z,3.80
2022-11-23T04:32:46.396Z,3.80
2022-11-23T04:36:49.696Z,3.80
2022-11-23T04:40:54.532Z,3.70
2022-11-23T04:44:59.091Z,3.80
2022-11-23T04:49:02.317Z,3.80
2022-11-23T04:53:06.336Z,3.70
2022-11-23T04:57:11.515Z,3.80
2022-11-23T05:01:14.906Z,3.80
2022-11-23T05:05:18.503Z,3.80
2022-11-23T05:09:21.911Z,3.70
2022-11-23T05:13:26.812Z,3.70
2022-11-23T05:17:30.358Z,3.80
2022-11-23T05:21:33.616Z,3.70
2022-11-23T05:25:36.921Z,3.80
2022-11-23T05:29:41.568Z,3.70
2022-11-23T05:33:45.108Z,3.80
2022-11-23T05:37:48.385Z,3.70
2022-11-23T05:41:51.709Z,3.70
2022-11-23T05:45:56.416Z,3.70
2022-11-23T05:49:59.669Z,3.70
2022-11-23T05:54:03.204Z,3.70
2022-11-23T05:58:06.485Z,3.70
2022-11-23T06:29:53.716Z,3.60
2022-11-23T06:33:58.417Z,3.70
2022-11-23T06:38:01.886Z,3.70
2022-11-23T06:42:23.763Z,3.70
2022-11-23T06:46:28.752Z,3.70
2022-11-23T06:50:33.757Z,3.70
2022-11-23T06:54:37.796Z,3.90
2022-11-23T06:58:41.573Z,3.90
2022-11-23T07:02:44.915Z,3.90
2022-11-23T07:06:49.753Z,4.00
2022-11-23T07:10:53.152Z,3.90
2022-11-23T07:14:56.615Z,4.00
2022-11-23T07:19:00.127Z,3.90
2022-11-23T07:23:06.224Z,4.00
2022-11-23T07:27:09.471Z,4.00
2022-11-23T07:31:16.083Z,4.00
2022-11-23T07:35:19.625Z,4.10
2022-11-23T07:39:41.866Z,4.10
2022-11-23T07:43:47.787Z,4.10
2022-11-23T07:47:59.806Z,4.20
2022-11-23T07:52:03.064Z,4.20
2022-11-23T07:56:08.813Z,4.20
2022-11-23T08:00:13.441Z,4.40
2022-11-23T08:04:16.744Z,4.50
2022-11-23T08:08:19.985Z,4.50
2022-11-23T08:12:24.699Z,4.50
2022-11-23T08:16:28.081Z,4.60
2022-11-23T08:20:33.520Z,4.70
2022-11-23T08:24:36.865Z,4.90
2022-11-23T08:28:41.523Z,4.90
2022-11-23T08:32:44.832Z,5.00
2022-11-23T08:36:48.241Z,5.00
2022-11-23T08:40:51.512Z,5.10
2022-11-23T08:44:56.274Z,5.20
2022-11-23T08:48:59.639Z,5.20
2022-11-23T08:53:02.951Z,5.40
2022-11-23T08:57:06.353Z,5.50
2022-11-23T09:01:12.141Z,5.70
2022-11-23T09:05:15.592Z,5.80
2022-11-23T09:09:18.937Z,5.90
2022-11-23T09:13:24.319Z,6.10
2022-11-23T09:17:29.031Z,6.20
2022-11-23T09:21:34.501Z,6.20
2022-11-23T09:25:37.906Z,6.20
2022-11-23T09:29:41.209Z,6.30
2022-11-23T09:33:46.002Z,6.30
2022-11-23T09:37:49.277Z,6.20
2022-11-23T09:42:17.866Z,6.20
2022-11-23T09:46:27.218Z,6.30
2022-11-23T09:50:44.764Z,6.30
2022-11-23T09:54:51.025Z,6.40
2022-11-23T09:58:57.890Z,6.40
2022-11-23T10:03:01.166Z,6.40
2022-11-23T10:07:23.876Z,6.30
2022-11-23T10:11:55.891Z,6.40
2022-11-23T10:16:15.670Z,6.50
2022-11-23T10:20:35.799Z,6.50
2022-11-23T10:24:48.046Z,6.40
2022-11-23T10:28:51.997Z,6.60
2022-11-23T10:33:02.420Z,6.60
2022-11-23T10:37:09.491Z,6.50
2022-11-23T10:41:16.748Z,6.50
2022-11-23T10:45:22.085Z,6.50
2022-11-23T10:49:27.674Z,6.60
2022-11-23T10:53:33.941Z,6.60
2022-11-23T10:57:45.398Z,6.60
2022-11-23T11:02:01.846Z,6.70
2022-11-23T11:06:10.262Z,6.70
2022-11-23T11:10:33.678Z,6.90
2022-11-23T11:14:43.237Z,7.10
2022-11-23T11:18:49.440Z,7.20
2022-11-23T11:28:23.024Z,7.40
2022-11-23T11:32:36.164Z,7.50
2022-11-23T11:36:42.341Z,7.40
2022-11-23T11:40:48.296Z,7.40
2022-11-23T11:44:54.325Z,7.40
2022-11-23T11:49:07.202Z,7.30
2022-11-23T11:53:16.371Z,7.30
2022-11-23T11:57:23.379Z,7.30
2022-11-23T12:01:34.722Z,7.20
2022-11-23T12:05:45.821Z,7.10
2022-11-23T12:09:52.986Z,7.10
2022-11-23T12:14:02.900Z,7.10
2022-11-23T12:18:25.227Z,7.10
2022-11-23T12:22:41.807Z,7.30
2022-11-23T12:26:53.474Z,7.20
2022-11-23T12:31:09.586Z,7.40
2022-11-23T12:35:33.280Z,7.70
2022-11-23T12:40:20.117Z,7.70
2022-11-23T12:44:48.932Z,7.70
2022-11-23T12:49:08.274Z,7.80
2022-11-23T12:53:32.152Z,7.70
2022-11-23T12:57:44.097Z,7.80
2022-11-23T13:01:52.875Z,7.80
2022-11-23T13:06:19.467Z,7.50
2022-11-23T13:10:32.149Z,7.50
2022-11-23T13:14:45.724Z,7.50
2022-11-23T13:23:26.436Z,7.50
2022-11-23T13:27:46.323Z,7.50
2022-11-23T13:32:23.455Z,7.50
2022-11-23T13:41:58.297Z,7.50
2022-11-23T13:46:28.879Z,7.50
2022-11-23T13:50:34.393Z,7.40
2022-11-23T13:54:39.870Z,7.30
2022-11-23T13:58:53.283Z,7.20
2022-11-23T14:03:37.583Z,7.10
2022-11-23T14:07:46.615Z,7.00
2022-11-23T14:12:16.232Z,6.80
2022-11-23T14:16:36.459Z,6.70
2022-11-23T14:20:56.991Z,6.50
2022-11-23T14:25:23.259Z,6.30
2022-11-23T14:29:39.100Z,6.20
2022-11-23T14:33:50.226Z,6.20
2022-11-23T14:38:08.123Z,6.20
2022-11-23T14:42:16.789Z,6.20
2022-11-23T14:46:21.961Z,6.20
2022-11-23T14:50:27.480Z,6.20
2022-11-23T14:54:32.486Z,6.20
2022-11-23T14:58:39.926Z,6.10
2022-11-23T15:02:44.993Z,6.00
2022-11-23T15:06:52.896Z,5.80
2022-11-23T15:11:04.434Z,5.70
2022-11-23T15:15:21.050Z,5.60
2022-11-23T15:19:29.573Z,5.60
2022-11-23T15:23:37.127Z,5.50
2022-11-23T15:27:42.560Z,5.50
2022-11-23T15:32:07.065Z,5.40
2022-11-23T15:36:11.067Z,5.40
2022-11-23T15:40:16.410Z,5.30
2022-11-23T15:44:26.381Z,5.20
2022-11-23T15:48:34.061Z,5.10
2022-11-23T15:52:39.350Z,5.10
2022-11-23T15:56:48.643Z,5.00
2022-11-23T16:00:56.475Z,4.90
2022-11-23T16:05:15.066Z,4.90
2022-11-23T16:09:51.212Z,4.80
2022-11-23T16:14:16.914Z,4.70
2022-11-23T16:18:25.836Z,4.60
2022-11-23T16:22:36.360Z,4.60
2022-11-23T16:26:40.909Z,4.50
2022-11-23T16:30:46.542Z,4.50
2022-11-23T16:34:50.009Z,4.40
2022-11-23T16:38:57.608Z,4.30
2022-11-23T16:43:04.642Z,4.20
2022-11-23T16:47:24.747Z,4.10
2022-11-23T16:51:32.555Z,4.10
2022-11-23T16:55:44.289Z,4.00
2022-11-23T16:59:48.958Z,3.90
2022-11-23T17:04:00.488Z,3.70
2022-11-23T17:08:05.376Z,3.70
2022-11-23T17:12:18.419Z,3.70
2022-11-23T17:16:25.352Z,3.70
2022-11-23T17:20:29.895Z,3.60
2022-11-23T17:24:36.196Z,3.50
2022-11-23T17:28:42.764Z,3.50
2022-11-23T17:32:49.478Z,3.50
2022-11-23T17:36:54.697Z,3.60
2022-11-23T17:40:59.919Z,3.60
2022-11-23T17:45:06.370Z,3.60
2022-11-23T17:49:13.120Z,3.70
2022-11-23T17:53:22.549Z,3.70
2022-11-23T17:57:30.229Z,3.80
2022-11-23T18:01:39.426Z,3.80
2022-11-23T18:05:44.793Z,3.90
2022-11-23T18:09:50.338Z,4.00
2022-11-23T18:13:55.856Z,4.00
2022-11-23T18:18:04.861Z,4.10
2022-11-23T18:22:10.017Z,4.10
2022-11-23T18:26:22.353Z,4.00
2022-11-23T18:30:26.698Z,3.90
2022-11-23T18:34:33.288Z,3.80
2022-11-23T18:38:38.636Z,3.70
2022-11-23T18:42:43.324Z,3.60
2022-11-23T18:46:49.002Z,3.50
2022-11-23T18:50:57.919Z,3.40
2022-11-23T18:55:21.211Z,3.30
2022-11-23T19:00:12.674Z,3.20
2022-11-23T19:09:36.408Z,3.30
2022-11-23T19:13:45.988Z,3.30
2022-11-23T19:18:12.385Z,3.20
2022-11-23T19:22:54.849Z,3.30
2022-11-23T19:32:09.493Z,3.10
2022-11-23T19:36:18.827Z,2.90
2022-11-23T19:40:24.222Z,2.90
2022-11-23T19:44:37.177Z,2.80
2022-11-23T19:48:46.505Z,2.80
2022-11-23T19:53:11.710Z,2.80
2022-11-23T19:57:18.974Z,3.00
2022-11-23T20:01:34.193Z,3.00
2022-11-23T20:05:40.216Z,2.90
2022-11-23T20:09:48.518Z,2.90
2022-11-23T20:13:59.997Z,2.90
2022-11-23T20:18:06.868Z,2.90
2022-11-23T20:22:13.696Z,2.90
2022-11-23T20:26:20.925Z,2.90
2022-11-23T20:30:24.897Z,3.00
2022-11-23T20:34:48.680Z,2.90
2022-11-23T20:38:54.985Z,3.00
2022-11-23T20:43:10.281Z,3.00
2022-11-23T20:47:15.339Z,3.10
2022-11-23T20:51:24.014Z,3.10
2022-11-23T20:55:28.947Z,3.00
2022-11-23T20:59:33.464Z,3.10
2022-11-23T21:03:39.173Z,3.10
2022-11-23T21:07:44.796Z,3.00
2022-11-23T21:12:05.348Z,3.00
2022-11-23T21:16:09.670Z,3.00
2022-11-23T21:20:13.362Z,3.00
2022-11-23T21:24:18.641Z,3.00
2022-11-23T21:28:22.800Z,3.00
2022-11-23T21:32:26.331Z,3.00
2022-11-23T21:36:30.125Z,3.00
2022-11-23T21:40:35.183Z,3.00
2022-11-23T21:44:38.712Z,3.00
2022-11-23T21:48:42.484Z,3.00
2022-11-23T21:52:46.011Z,3.00
2022-11-23T21:56:50.906Z,2.90
2022-11-23T22:00:54.532Z,2.90
2022-11-23T22:04:58.132Z,2.70
2022-11-23T22:09:01.830Z,2.70
2022-11-23T22:13:06.748Z,2.70
2022-11-23T22:17:10.235Z,2.60
2022-11-23T22:21:14.403Z,2.50
2022-11-23T22:25:28.089Z,2.50
2022-11-23T22:29:33.096Z,2.50
2022-11-23T22:33:36.679Z,2.50
2022-11-23T22:37:40.098Z,2.50
2022-11-23T22:41:43.611Z,2.50
2022-11-23T22:45:48.736Z,2.50
2022-11-23T22:49:52.208Z,2.50
2022-11-23T22:53:55.888Z,2.60
2022-11-23T22:57:59.453Z,2.60
2022-11-23T23:02:04.366Z,2.60
2022-11-23T23:06:08.060Z,2.70
2022-11-23T23:10:12.086Z,2.70
2022-11-23T23:14:15.543Z,2.80
2022-11-23T23:18:20.424Z,2.70
2022-11-23T23:22:23.874Z,2.60
2022-11-23T23:26:28.744Z,2.60
2022-11-23T23:30:32.186Z,2.40
2022-11-23T23:34:37.171Z,2.40
2022-11-23T23:38:40.958Z,2.30
2022-11-23T23:42:45.421Z,2.20
2022-11-23T23:46:48.933Z,2.10
2022-11-23T23:51:06.701Z,2.10
2022-11-23T23:55:10.869Z,2.00
2022-11-23T23:59:14.292Z,2.00
